Time;durP1;ratioP1;P1;durP2;ratioP2;P2;SDS_P1;SDS_P2;PMS_P1;PMS_P2;Temp;Humidity;BMP_temperature;BMP_pressure;BME280_temperature;BME280_humidity;BME280_pressure;Samples;Min_cycle;Max_cycle;Signal;HPM_P1;HPM_P2
2022/09/25 00:01:13;;;;;;;12.53;3.87;;;13.30;99.90;;;;;;5094373;28;20230;-77
2022/09/25 00:03:39;;;;;;;7.87;3.43;;;13.20;99.90;;;;;;5094386;28;20583;-75
2022/09/25 00:06:06;;;;;;;9.47;3.63;;;13.30;99.90;;;;;;5095404;28;20179;-77
2022/09/25 00:08:33;;;;;;;6.00;3.20;;;13.20;99.90;;;;;;5095428;28;20251;-76
2022/09/25 00:10:59;;;;;;;5.67;3.00;;;13.30;99.90;;;;;;5096452;28;20174;-77
2022/09/25 00:13:24;;;;;;;5.80;3.13;;;13.30;99.90;;;;;;5096507;28;20622;-79
2022/09/25 00:15:56;;;;;;;5.73;3.13;;;13.30;99.90;;;;;;5098225;28;20177;-79
2022/09/25 00:21:11;;;;;;;9.17;2.93;;;13.30;99.90;;;;;;5097936;28;20165;-79
2022/09/25 00:23:38;;;;;;;7.07;2.43;;;13.20;99.90;;;;;;5077349;28;20213;-77
2022/09/25 00:26:04;;;;;;;4.80;2.80;;;13.30;99.90;;;;;;5075789;28;20185;-76
2022/09/25 00:28:30;;;;;;;6.10;2.63;;;13.20;99.90;;;;;;5075857;28;20191;-76
2022/09/25 00:30:56;;;;;;;8.37;3.37;;;13.20;99.90;;;;;;5075812;28;20552;-77
2022/09/25 00:33:22;;;;;;;8.47;2.73;;;13.20;99.90;;;;;;5089356;28;20251;-78
2022/09/25 00:35:48;;;;;;;4.00;2.60;;;13.20;99.90;;;;;;5095614;28;20628;-78
2022/09/25 00:38:14;;;;;;;6.70;3.20;;;13.20;99.90;;;;;;5095426;28;20185;-78
2022/09/25 00:40:39;;;;;;;5.03;2.47;;;13.20;99.90;;;;;;5095635;28;20179;-78
2022/09/25 00:43:32;;;;;;;10.43;2.90;;;13.20;99.90;;;;;;5094323;28;20706;-78
2022/09/25 00:45:58;;;;;;;5.70;2.53;;;13.20;99.90;;;;;;5094023;28;20177;-78
2022/09/25 00:48:23;;;;;;;7.30;2.93;;;13.20;99.90;;;;;;5095320;28;20202;-77
2022/09/25 00:50:53;;;;;;;6.37;2.33;;;13.20;99.90;;;;;;5094969;28;20181;-77
2022/09/25 00:53:24;;;;;;;10.30;2.17;;;13.20;99.90;;;;;;5093840;28;20216;-78
2022/09/25 00:55:50;;;;;;;4.23;1.80;;;13.20;99.90;;;;;;5094980;28;20169;-78
2022/09/25 00:58:19;;;;;;;7.17;2.30;;;13.20;99.90;;;;;;5093408;28;20239;-78
2022/09/25 01:00:45;;;;;;;6.20;2.47;;;13.10;99.90;;;;;;5094689;28;20179;-78
2022/09/25 01:03:11;;;;;;;3.63;1.50;;;13.20;99.90;;;;;;5094018;28;20206;-78
2022/09/25 01:05:40;;;;;;;11.77;1.87;;;13.10;99.90;;;;;;5093477;28;20182;-77
2022/09/25 01:08:09;;;;;;;6.00;1.83;;;13.10;99.90;;;;;;5094788;28;20650;-78
2022/09/25 01:10:35;;;;;;;5.67;1.80;;;13.10;99.90;;;;;;5093183;28;20265;-76
2022/09/25 01:13:01;;;;;;;2.37;1.30;;;13.10;99.90;;;;;;5094532;28;20190;-76
2022/09/25 01:15:53;;;;;;;6.90;1.50;;;13.10;99.90;;;;;;5094520;28;20174;-76
2022/09/25 01:18:38;;;;;;;8.63;1.50;;;13.10;99.90;;;;;;5093798;28;20217;-77
2022/09/25 01:21:16;;;;;;;4.80;1.77;;;13.10;99.90;;;;;;5094801;28;20207;-78
2022/09/25 01:24:00;;;;;;;4.93;1.70;;;13.10;99.90;;;;;;5092981;28;20358;-77
2022/09/25 01:27:02;;;;;;;8.37;1.77;;;13.10;99.90;;;;;;5095106;28;20173;-77
2022/09/25 01:29:43;;;;;;;7.87;1.70;;;13.10;99.90;;;;;;5094316;28;20180;-77
2022/09/25 01:32:17;;;;;;;9.27;1.87;;;13.10;99.90;;;;;;5092747;28;20249;-77
2022/09/25 01:35:21;;;;;;;5.37;1.63;;;13.10;99.90;;;;;;5094365;28;20159;-78
2022/09/25 01:38:09;;;;;;;5.73;1.67;;;13.10;99.90;;;;;;5093817;28;20186;-77
2022/09/25 01:41:10;;;;;;;3.40;1.50;;;13.10;99.90;;;;;;5093985;28;20159;-78
2022/09/25 01:43:46;;;;;;;7.63;1.63;;;13.00;99.90;;;;;;5085535;28;20213;-78
2022/09/25 01:46:22;;;;;;;2.93;1.40;;;13.10;99.90;;;;;;5093832;28;20231;-78
2022/09/25 01:48:59;;;;;;;4.40;1.30;;;13.00;99.90;;;;;;5094067;28;20182;-78
2022/09/25 01:51:42;;;;;;;8.03;1.87;;;13.10;99.90;;;;;;5092803;28;20158;-77
2022/09/25 01:54:13;;;;;;;5.43;1.73;;;13.10;99.90;;;;;;5093861;28;20169;-76
2022/09/25 01:57:06;;;;;;;6.17;1.67;;;13.10;99.90;;;;;;5094011;28;20154;-77
2022/09/25 01:59:47;;;;;;;7.60;1.80;;;13.10;99.90;;;;;;5091629;28;20577;-77
2022/09/25 02:02:18;;;;;;;8.93;2.27;;;13.00;99.90;;;;;;5093518;28;20186;-77
2022/09/25 02:04:58;;;;;;;7.63;1.93;;;13.00;99.90;;;;;;5093582;28;20166;-77
2022/09/25 02:07:35;;;;;;;8.03;2.00;;;13.00;99.90;;;;;;5094057;28;20205;-78
2022/09/25 02:10:16;;;;;;;7.47;1.80;;;13.00;99.90;;;;;;5094135;28;20143;-77
2022/09/25 02:12:46;;;;;;;5.07;1.60;;;13.00;99.90;;;;;;5091947;28;20193;-77
2022/09/25 02:15:20;;;;;;;7.33;2.13;;;12.90;99.90;;;;;;5094177;28;20162;-77
2022/09/25 02:21:26;;;;;;;5.17;1.83;;;12.90;99.90;;;;;;5095135;28;20166;-77
2022/09/25 02:24:16;;;;;;;4.50;1.60;;;12.90;99.90;;;;;;5094409;28;20194;-77
2022/09/25 02:26:42;;;;;;;3.57;1.53;;;12.90;99.90;;;;;;5093220;28;20170;-77
2022/09/25 02:29:08;;;;;;;10.67;2.07;;;12.90;99.90;;;;;;5093159;28;20240;-77
2022/09/25 02:31:41;;;;;;;4.87;1.77;;;12.90;99.90;;;;;;5093105;28;20728;-76
2022/09/25 02:34:07;;;;;;;8.83;1.70;;;12.90;99.90;;;;;;5092237;28;20177;-76
2022/09/25 02:36:33;;;;;;;4.87;2.00;;;12.90;99.90;;;;;;5093203;28;20166;-76
2022/09/25 02:39:01;;;;;;;4.93;1.70;;;12.90;99.90;;;;;;5091811;28;20178;-78
2022/09/25 02:41:47;;;;;;;16.17;2.70;;;12.90;99.90;;;;;;5093676;28;20181;-77
2022/09/25 02:44:30;;;;;;;3.67;1.40;;;12.90;99.90;;;;;;5093263;28;20162;-77
2022/09/25 02:47:33;;;;;;;6.67;1.40;;;12.90;99.90;;;;;;5093312;28;20201;-77
2022/09/25 02:50:26;;;;;;;5.37;1.33;;;12.90;99.90;;;;;;5093007;28;20185;-77
2022/09/25 02:53:05;;;;;;;4.63;1.77;;;12.90;99.90;;;;;;5091660;28;20220;-77
2022/09/25 02:55:33;;;;;;;3.67;1.50;;;12.90;99.90;;;;;;5093267;28;20154;-77
2022/09/25 02:58:26;;;;;;;7.30;1.67;;;12.90;99.90;;;;;;5093031;28;20217;-77
2022/09/25 03:00:54;;;;;;;7.37;1.80;;;12.90;99.90;;;;;;5084596;28;20221;-78
2022/09/25 03:03:23;;;;;;;5.83;1.47;;;12.90;99.90;;;;;;5093024;28;20191;-78
2022/09/25 03:05:51;;;;;;;4.57;1.97;;;12.90;99.90;;;;;;5093153;28;20257;-78
2022/09/25 03:08:37;;;;;;;9.87;1.83;;;12.90;99.90;;;;;;5092735;28;20192;-77
2022/09/25 03:11:08;;;;;;;5.40;1.60;;;12.80;99.90;;;;;;5091859;28;20624;-77
2022/09/25 03:13:34;;;;;;;3.70;1.37;;;12.80;99.90;;;;;;5091626;28;20224;-77
2022/09/25 03:16:14;;;;;;;10.50;1.97;;;12.80;99.90;;;;;;5091448;28;20201;-77
2022/09/25 03:18:40;;;;;;;7.70;2.10;;;12.80;99.90;;;;;;5093393;28;20186;-76
2022/09/25 03:21:06;;;;;;;6.17;1.73;;;12.80;99.90;;;;;;5092787;28;20663;-77
2022/09/25 03:23:32;;;;;;;6.03;2.47;;;12.80;99.90;;;;;;5092852;28;20284;-78
2022/09/25 03:25:58;;;;;;;4.50;1.60;;;12.70;99.90;;;;;;5095543;28;20174;-77
2022/09/25 03:28:23;;;;;;;3.53;1.50;;;12.70;99.90;;;;;;5096755;28;20200;-78
2022/09/25 03:31:00;;;;;;;5.33;1.57;;;12.70;99.90;;;;;;5097022;28;20167;-77
2022/09/25 03:33:33;;;;;;;8.50;1.97;;;12.70;99.90;;;;;;5095157;28;20201;-77
2022/09/25 03:36:17;;;;;;;9.47;1.90;;;12.70;99.90;;;;;;5094786;28;20163;-77
2022/09/25 03:38:44;;;;;;;5.70;2.27;;;12.70;99.90;;;;;;5096579;28;20161;-77
2022/09/25 03:41:11;;;;;;;6.53;1.80;;;12.60;99.90;;;;;;5095891;28;20199;-77
2022/09/25 03:43:40;;;;;;;6.23;1.97;;;12.60;99.90;;;;;;5096147;28;20190;-77
2022/09/25 03:46:11;;;;;;;10.33;2.60;;;12.60;99.90;;;;;;5096175;28;20201;-77
2022/09/25 03:48:37;;;;;;;8.33;2.37;;;12.60;99.90;;;;;;5094603;28;20244;-77
2022/09/25 03:51:04;;;;;;;5.67;1.90;;;12.60;99.90;;;;;;5095859;28;20173;-76
2022/09/25 03:53:31;;;;;;;10.10;2.17;;;12.50;99.90;;;;;;5094457;28;20578;-77
2022/09/25 03:55:56;;;;;;;7.90;2.00;;;12.50;99.90;;;;;;5096059;28;20254;-77
2022/09/25 03:58:22;;;;;;;5.43;2.10;;;12.50;99.90;;;;;;5096138;28;20227;-77
2022/09/25 04:00:48;;;;;;;10.17;2.20;;;12.50;99.90;;;;;;5108060;22;20227;-76
2022/09/25 04:03:14;;;;;;;4.60;1.70;;;12.50;99.90;;;;;;5056220;28;20171;-75
2022/09/25 04:05:42;;;;;;;5.80;1.77;;;12.50;99.90;;;;;;5075012;28;20537;-76
2022/09/25 04:08:07;;;;;;;4.13;1.80;;;12.50;99.90;;;;;;5074944;28;20199;-76
2022/09/25 04:10:37;;;;;;;6.13;1.90;;;12.40;99.90;;;;;;5074939;28;20201;-76
2022/09/25 04:13:04;;;;;;;6.47;1.73;;;12.40;99.90;;;;;;5073773;28;20561;-76
2022/09/25 04:15:30;;;;;;;8.40;2.00;;;12.40;99.90;;;;;;5073732;28;20228;-76
2022/09/25 04:17:57;;;;;;;7.30;2.20;;;12.40;99.90;;;;;;5073697;28;20171;-76
2022/09/25 04:20:22;;;;;;;5.40;1.80;;;12.40;99.90;;;;;;5074865;28;20198;-76
2022/09/25 04:22:48;;;;;;;6.77;1.60;;;12.40;99.90;;;;;;5073588;28;20171;-75
2022/09/25 04:25:13;;;;;;;4.87;1.50;;;12.40;99.90;;;;;;5074764;28;20171;-76
2022/09/25 04:27:39;;;;;;;4.40;2.00;;;12.40;99.90;;;;;;5073427;28;20230;-75
2022/09/25 04:30:06;;;;;;;6.80;1.47;;;12.40;99.90;;;;;;5075046;28;20213;-76
2022/09/25 04:35:15;;;;;;;5.37;1.60;;;12.30;99.90;;;;;;5074234;28;20241;-76
2022/09/25 04:37:41;;;;;;;8.50;2.40;;;12.30;99.90;;;;;;5074592;28;20656;-76
2022/09/25 04:40:07;;;;;;;6.87;1.60;;;12.30;99.90;;;;;;5073182;28;20202;-76
2022/09/25 04:42:33;;;;;;;7.73;1.40;;;12.30;99.90;;;;;;5073210;28;20179;-76
2022/09/25 04:44:58;;;;;;;5.60;1.67;;;12.30;99.90;;;;;;5074736;28;20665;-76
2022/09/25 04:47:26;;;;;;;6.63;1.67;;;12.20;99.90;;;;;;5074293;28;20191;-76
2022/09/25 04:49:51;;;;;;;3.77;1.50;;;12.20;99.90;;;;;;5073036;28;20191;-76
2022/09/25 04:52:19;;;;;;;5.57;1.40;;;12.20;99.90;;;;;;5074280;28;20173;-76
2022/09/25 04:54:45;;;;;;;6.47;1.50;;;12.10;99.90;;;;;;5074265;28;20171;-76
2022/09/25 04:57:20;;;;;;;10.67;1.60;;;12.10;99.90;;;;;;5074177;28;20214;-76
2022/09/25 04:59:47;;;;;;;6.50;1.40;;;12.10;99.90;;;;;;5073750;28;20264;-76
2022/09/25 05:02:14;;;;;;;6.97;1.63;;;12.00;99.90;;;;;;5072623;28;20174;-76
2022/09/25 05:04:39;;;;;;;6.87;1.60;;;12.00;99.90;;;;;;5072489;28;20182;-75
2022/09/25 05:07:05;;;;;;;6.27;1.93;;;12.00;99.90;;;;;;5072383;28;20699;-75
2022/09/25 05:09:31;;;;;;;7.40;1.67;;;11.90;99.90;;;;;;5073689;28;20171;-75
2022/09/25 05:11:57;;;;;;;6.07;1.50;;;11.90;99.90;;;;;;5072404;28;20183;-75
2022/09/25 05:14:22;;;;;;;6.93;1.67;;;11.80;99.90;;;;;;5072512;28;20269;-75
2022/09/25 05:16:49;;;;;;;6.10;1.57;;;11.80;99.90;;;;;;5073762;28;20275;-76
2022/09/25 05:19:15;;;;;;;9.10;1.83;;;11.80;99.90;;;;;;5072314;28;20167;-78
2022/09/25 05:21:41;;;;;;;7.03;1.50;;;11.70;99.90;;;;;;5073714;28;20179;-76
2022/09/25 05:24:07;;;;;;;4.57;1.50;;;11.70;99.90;;;;;;5073600;28;20174;-75
2022/09/25 05:26:34;;;;;;;6.50;1.40;;;11.70;99.90;;;;;;5073567;28;20171;-76
2022/09/25 05:29:00;;;;;;;5.43;1.27;;;11.70;99.90;;;;;;5072199;28;20222;-76
2022/09/25 05:31:26;;;;;;;5.23;1.30;;;11.60;99.90;;;;;;5072135;28;20198;-76
2022/09/25 05:33:52;;;;;;;6.10;1.33;;;11.60;99.90;;;;;;5073464;28;20167;-76
2022/09/25 05:36:19;;;;;;;6.93;1.10;;;11.60;99.90;;;;;;5073670;28;20163;-76
2022/09/25 05:38:45;;;;;;;5.87;1.60;;;11.60;99.90;;;;;;5073330;28;20544;-75
2022/09/25 05:41:11;;;;;;;8.47;1.47;;;11.50;99.90;;;;;;5072023;28;20276;-76
2022/09/25 05:43:42;;;;;;;8.10;1.50;;;11.50;99.90;;;;;;5073448;28;20742;-76
2022/09/25 05:46:09;;;;;;;4.63;1.50;;;11.50;99.90;;;;;;5073432;28;20167;-76
2022/09/25 05:48:35;;;;;;;3.43;1.10;;;11.50;99.90;;;;;;5073205;28;20197;-76
2022/09/25 05:51:00;;;;;;;5.70;1.40;;;11.50;99.90;;;;;;5073213;28;20191;-76
2022/09/25 05:53:26;;;;;;;6.00;1.57;;;11.50;99.90;;;;;;5073219;28;20196;-76
2022/09/25 05:55:58;;;;;;;6.20;1.77;;;11.50;99.90;;;;;;5071892;28;20550;-76
2022/09/25 05:58:28;;;;;;;9.50;1.97;;;11.50;99.90;;;;;;5073298;28;20734;-76
2022/09/25 06:00:53;;;;;;;4.80;1.63;;;11.50;99.90;;;;;;5072889;28;20764;-76
2022/09/25 06:03:19;;;;;;;4.53;1.37;;;11.50;99.90;;;;;;5072027;28;20179;-76
2022/09/25 06:05:45;;;;;;;7.53;2.40;;;11.50;99.90;;;;;;5071760;28;20175;-76
2022/09/25 06:08:12;;;;;;;10.00;1.53;;;11.50;99.90;;;;;;5072927;28;20199;-76
2022/09/25 06:10:40;;;;;;;6.97;1.50;;;11.50;99.90;;;;;;5072923;28;20749;-76
2022/09/25 06:13:07;;;;;;;1.80;1.27;;;11.50;99.90;;;;;;5071641;28;20637;-76
2022/09/25 06:15:36;;;;;;;7.10;1.87;;;11.50;99.90;;;;;;5071701;28;20198;-75
2022/09/25 06:18:05;;;;;;;7.17;1.57;;;11.50;99.90;;;;;;5071664;28;20179;-77
2022/09/25 06:20:31;;;;;;;3.97;1.23;;;11.50;99.90;;;;;;5072825;28;20281;-75
2022/09/25 06:22:59;;;;;;;5.30;1.17;;;11.50;99.90;;;;;;5073209;28;20205;-76
2022/09/25 06:25:29;;;;;;;11.83;1.90;;;11.50;99.90;;;;;;5073084;28;20171;-76
2022/09/25 06:27:56;;;;;;;5.47;2.10;;;11.50;99.90;;;;;;5071443;28;20607;-76
2022/09/25 06:30:26;;;;;;;6.17;1.80;;;11.40;99.90;;;;;;5072956;28;20187;-76
2022/09/25 06:32:58;;;;;;;11.57;2.13;;;11.40;99.90;;;;;;5071588;28;20644;-76
2022/09/25 06:35:24;;;;;;;6.33;1.60;;;11.40;99.90;;;;;;5071422;28;20225;-76
2022/09/25 06:37:50;;;;;;;5.07;1.80;;;11.40;99.90;;;;;;5071374;28;20170;-76
2022/09/25 06:40:16;;;;;;;7.63;2.60;;;11.40;99.90;;;;;;5071277;28;20286;-76
2022/09/25 06:42:41;;;;;;;7.40;1.83;;;11.40;99.90;;;;;;5072918;28;20171;-75
2022/09/25 06:45:09;;;;;;;5.33;2.10;;;11.40;99.90;;;;;;5072790;28;20572;-76
2022/09/25 06:47:34;;;;;;;6.73;1.77;;;11.40;99.90;;;;;;5072528;28;20187;-76
2022/09/25 06:49:59;;;;;;;6.33;1.80;;;11.40;99.90;;;;;;5072462;28;20190;-76
2022/09/25 06:52:25;;;;;;;8.30;2.13;;;11.30;99.90;;;;;;5071162;28;20576;-76
2022/09/25 06:54:50;;;;;;;5.53;1.43;;;11.30;99.90;;;;;;5071118;28;20178;-76
2022/09/25 06:57:16;;;;;;;5.87;1.87;;;11.30;99.90;;;;;;5072941;28;20175;-76
2022/09/25 06:59:41;;;;;;;8.83;1.57;;;11.30;99.90;;;;;;5075104;28;20574;-75
2022/09/25 07:04:52;;;;;;;5.40;1.77;;;11.30;99.90;;;;;;5076550;28;20162;-75
2022/09/25 07:07:19;;;;;;;6.43;1.90;;;11.40;99.90;;;;;;5075995;28;20199;-75
2022/09/25 07:09:47;;;;;;;13.03;2.60;;;11.40;99.90;;;;;;5074850;28;20191;-76
2022/09/25 07:12:13;;;;;;;8.90;2.10;;;11.30;99.90;;;;;;5076108;28;20703;-75
2022/09/25 07:14:40;;;;;;;6.13;1.87;;;11.40;99.90;;;;;;5076239;28;20712;-75
2022/09/25 07:17:06;;;;;;;5.43;1.70;;;11.30;99.90;;;;;;5075955;28;20224;-75
2022/09/25 07:19:32;;;;;;;6.27;1.63;;;11.40;99.90;;;;;;5074589;28;20202;-75
2022/09/25 07:21:58;;;;;;;3.97;1.63;;;11.40;99.90;;;;;;5076135;28;20533;-75
2022/09/25 07:24:24;;;;;;;5.20;1.80;;;11.40;99.90;;;;;;5075334;28;20183;-75
2022/09/25 07:26:51;;;;;;;8.00;1.83;;;11.40;99.90;;;;;;5075698;28;20171;-75
2022/09/25 07:29:17;;;;;;;7.83;2.27;;;11.40;99.90;;;;;;5074396;28;20198;-74
2022/09/25 07:31:42;;;;;;;8.50;1.90;;;11.40;99.90;;;;;;5075706;28;20617;-75
2022/09/25 07:34:08;;;;;;;6.03;2.10;;;11.50;99.90;;;;;;5075693;28;20159;-74
2022/09/25 07:36:38;;;;;;;6.83;1.80;;;11.50;99.90;;;;;;5074369;28;20171;-78
2022/09/25 07:39:04;;;;;;;7.10;2.60;;;11.60;99.90;;;;;;5075943;28;20195;-76
2022/09/25 07:41:30;;;;;;;10.37;2.43;;;11.70;99.90;;;;;;5075733;28;20202;-75
2022/09/25 07:43:57;;;;;;;8.87;2.30;;;11.70;99.90;;;;;;5075805;28;20171;-75
2022/09/25 07:46:26;;;;;;;6.80;2.30;;;11.80;99.90;;;;;;5076492;28;20174;-75
2022/09/25 07:48:52;;;;;;;8.47;2.00;;;11.90;99.90;;;;;;5075564;28;20190;-75
2022/09/25 07:51:20;;;;;;;9.03;2.00;;;12.00;99.90;;;;;;5074078;28;20194;-75
2022/09/25 07:53:46;;;;;;;6.03;1.60;;;12.00;99.90;;;;;;5075307;28;20171;-75
2022/09/25 07:56:12;;;;;;;9.93;1.93;;;12.10;99.90;;;;;;5074022;28;20178;-75
2022/09/25 07:58:38;;;;;;;6.33;1.53;;;12.20;99.90;;;;;;5074128;28;20179;-75
2022/09/25 08:01:06;;;;;;;8.00;1.43;;;12.20;99.90;;;;;;5074957;28;20202;-75
2022/09/25 08:03:32;;;;;;;5.27;1.40;;;12.30;99.90;;;;;;5074235;28;20538;-76
2022/09/25 08:05:59;;;;;;;5.67;1.60;;;12.30;99.90;;;;;;5074203;28;20232;-76
2022/09/25 08:08:26;;;;;;;7.27;1.40;;;12.40;99.90;;;;;;5074203;28;20194;-76
2022/09/25 08:10:53;;;;;;;7.38;1.75;;;12.40;99.90;;;;;;5072368;28;20962;-76
2022/09/25 08:13:20;;;;;;;6.33;1.53;;;12.50;99.90;;;;;;5075130;28;20181;-76
2022/09/25 08:15:47;;;;;;;4.93;1.50;;;12.50;99.90;;;;;;5074923;28;20171;-76
2022/09/25 08:18:13;;;;;;;8.90;1.93;;;12.60;99.90;;;;;;5073389;28;20174;-76
2022/09/25 08:20:39;;;;;;;5.77;1.50;;;12.60;99.90;;;;;;5074319;28;20210;-76
2022/09/25 08:23:05;;;;;;;7.27;1.40;;;12.70;99.90;;;;;;5074302;28;20203;-76
2022/09/25 08:25:30;;;;;;;8.73;1.47;;;12.70;99.90;;;;;;5072908;28;20265;-76
2022/09/25 08:27:56;;;;;;;8.40;1.40;;;12.90;99.90;;;;;;5074190;28;20348;-76
2022/09/25 08:30:22;;;;;;;5.30;1.50;;;12.90;99.90;;;;;;5072883;28;20201;-76
2022/09/25 08:32:47;;;;;;;8.77;1.63;;;13.00;99.90;;;;;;5074261;28;20544;-76
2022/09/25 08:35:13;;;;;;;6.60;1.37;;;13.00;99.90;;;;;;5072958;28;20260;-76
2022/09/25 08:37:40;;;;;;;7.57;1.30;;;13.10;99.90;;;;;;5072938;28;20262;-76
2022/09/25 08:40:16;;;;;;;4.53;0.90;;;13.20;99.90;;;;;;5074368;28;20217;-77
2022/09/25 08:42:44;;;;;;;5.57;1.10;;;13.20;99.90;;;;;;5074567;28;20224;-76
2022/09/25 08:51:04;;;;;;;7.60;1.70;;;13.40;99.90;;;;;;5074356;28;20309;-76
2022/09/25 08:53:31;;;;;;;5.97;1.00;;;13.50;99.90;;;;;;5072860;28;20671;-76
2022/09/25 08:56:14;;;;;;;8.97;1.37;;;13.50;99.90;;;;;;5073863;28;20175;-76
2022/09/25 08:59:05;;;;;;;3.30;0.93;;;13.60;99.90;;;;;;5074186;28;20152;-76
2022/09/25 09:01:46;;;;;;;5.70;1.13;;;13.70;99.90;;;;;;5063916;28;20359;-76
2022/09/25 09:04:17;;;;;;;6.20;1.70;;;13.70;99.90;;;;;;5073830;28;20170;-76
2022/09/25 09:06:43;;;;;;;7.20;1.30;;;13.80;99.90;;;;;;5073686;28;20197;-76
2022/09/25 09:09:25;;;;;;;2.90;0.97;;;13.90;99.90;;;;;;5073610;28;20247;-76
2022/09/25 09:12:00;;;;;;;4.17;0.80;;;13.80;99.90;;;;;;5073978;28;20159;-76
2022/09/25 09:14:30;;;;;;;5.67;1.07;;;13.80;99.90;;;;;;5072339;28;20256;-76
2022/09/25 09:17:03;;;;;;;4.73;1.17;;;13.80;99.90;;;;;;5073498;28;20190;-76
2022/09/25 09:19:30;;;;;;;3.63;0.93;;;13.80;99.90;;;;;;5073355;28;20213;-77
2022/09/25 09:22:11;;;;;;;4.67;1.10;;;13.80;99.90;;;;;;5073133;28;20172;-76
2022/09/25 09:24:53;;;;;;;10.43;1.10;;;13.90;99.90;;;;;;5073596;28;20187;-76
2022/09/25 09:27:51;;;;;;;6.23;1.20;;;14.10;99.90;;;;;;5073227;28;20183;-76
2022/09/25 09:30:22;;;;;;;3.57;0.83;;;14.20;99.90;;;;;;5073156;28;20202;-76
2022/09/25 09:33:19;;;;;;;4.70;1.40;;;14.20;99.90;;;;;;5073200;28;20621;-76
2022/09/25 09:36:28;;;;;;;4.80;0.97;;;14.30;99.90;;;;;;5071843;28;20175;-76
2022/09/25 09:39:09;;;;;;;6.87;0.80;;;14.30;99.90;;;;;;5067344;28;20182;-76
2022/09/25 09:41:46;;;;;;;4.50;1.20;;;14.40;46.80;;;;;;5073107;28;20191;-76
2022/09/25 09:44:33;;;;;;;1.80;0.83;;;14.40;1.00;;;;;;5073423;28;20240;-76
2022/09/25 09:47:26;;;;;;;2.10;0.87;;;14.50;1.00;;;;;;5071626;28;20169;-74
2022/09/25 09:50:05;;;;;;;5.30;1.03;;;14.60;22.10;;;;;;5071602;28;20239;-75
2022/09/25 09:52:41;;;;;;;3.83;0.97;;;14.70;1.00;;;;;;5071693;28;20250;-74
2022/09/25 09:55:22;;;;;;;2.83;0.80;;;14.80;99.90;;;;;;5072938;28;20158;-75
2022/09/25 09:57:52;;;;;;;2.40;0.97;;;14.90;99.90;;;;;;5071819;28;20163;-75
2022/09/25 10:00:21;;;;;;;3.20;0.97;;;15.00;29.90;;;;;;5097021;22;20267;-76
2022/09/25 10:03:15;;;;;;;1.37;0.70;;;15.00;1.00;;;;;;5091488;28;20762;-77
2022/09/25 10:05:52;;;;;;;3.63;0.70;;;15.10;99.90;;;;;;5094186;28;20154;-75
2022/09/25 10:08:17;;;;;;;8.40;1.00;;;15.20;15.90;;;;;;5092253;28;20261;-76
2022/09/25 10:10:53;;;;;;;5.30;0.90;;;15.10;99.90;;;;;;5085695;28;20675;-75
2022/09/25 10:13:29;;;;;;;5.77;0.77;;;15.10;1.00;;;;;;5073075;28;20280;-76
2022/09/25 10:16:04;;;;;;;5.47;0.90;;;15.10;99.90;;;;;;5072958;28;20186;-76
2022/09/25 10:18:42;;;;;;;4.07;0.90;;;15.00;1.00;;;;;;5071496;28;20659;-75
2022/09/25 10:21:17;;;;;;;3.03;0.63;;;14.90;1.00;;;;;;5071948;28;20195;-75
2022/09/25 10:23:49;;;;;;;3.03;0.90;;;15.00;99.90;;;;;;5072905;28;20163;-75
2022/09/25 10:26:34;;;;;;;3.07;1.00;;;15.10;99.90;;;;;;5072924;28;20174;-76
2022/09/25 10:29:06;;;;;;;2.53;1.33;;;15.20;99.90;;;;;;5072883;28;20699;-76
2022/09/25 10:31:37;;;;;;;5.60;0.70;;;15.30;1.00;;;;;;5071634;28;20572;-75
2022/09/25 10:34:12;;;;;;;5.13;0.80;;;15.40;18.30;;;;;;5073780;28;20179;-76
2022/09/25 10:36:44;;;;;;;5.73;0.90;;;15.50;99.90;;;;;;5076700;28;20174;-76
2022/09/25 10:39:33;;;;;;;2.37;1.00;;;15.70;1.00;;;;;;5076842;28;20252;-76
2022/09/25 10:42:00;;;;;;;2.50;0.93;;;15.70;84.30;;;;;;5077655;28;20190;-76
2022/09/25 10:44:37;;;;;;;8.17;1.50;;;15.80;99.90;;;;;;5076795;28;20225;-76
2022/09/25 10:50:23;;;;;;;6.27;1.57;;;15.80;1.00;;;;;;5076680;28;20644;-77
2022/09/25 10:52:57;;;;;;;7.93;1.10;;;15.80;1.00;;;;;;5075228;28;20179;-76
2022/09/25 10:55:29;;;;;;;3.13;1.03;;;15.80;1.00;;;;;;5075229;28;20548;-76
2022/09/25 10:58:21;;;;;;;1.93;0.93;;;15.80;1.00;;;;;;5075396;28;20171;-76
2022/09/25 11:00:50;;;;;;;2.97;0.70;;;15.80;99.90;;;;;;5075259;28;20691;-76
2022/09/25 11:03:38;;;;;;;3.93;0.70;;;15.90;1.00;;;;;;5076625;28;20174;-76
2022/09/25 11:06:19;;;;;;;4.57;0.80;;;16.00;1.00;;;;;;5073982;28;20253;-76
2022/09/25 11:08:48;;;;;;;4.90;1.10;;;16.00;1.00;;;;;;5076336;28;20187;-76
2022/09/25 11:11:20;;;;;;;4.40;1.40;;;16.00;1.00;;;;;;5076533;28;20196;-76
2022/09/25 11:13:51;;;;;;;5.17;1.13;;;15.90;83.50;;;;;;5075126;28;20175;-78
2022/09/25 11:16:17;;;;;;;3.17;1.20;;;15.90;1.00;;;;;;5075311;28;20178;-76
2022/09/25 11:18:48;;;;;;;2.50;1.13;;;16.00;1.00;;;;;;5075404;28;20637;-76
2022/09/25 11:21:26;;;;;;;2.80;0.90;;;16.00;99.90;;;;;;5075349;28;20199;-76
2022/09/25 11:24:01;;;;;;;6.00;1.30;;;15.90;99.90;;;;;;5076344;28;20151;-77
2022/09/25 11:26:57;;;;;;;4.33;1.47;;;15.90;99.90;;;;;;5075907;28;20205;-76
2022/09/25 11:29:43;;;;;;;5.03;1.73;;;15.80;99.90;;;;;;5074959;28;20173;-76
2022/09/25 11:32:40;;;;;;;5.03;1.50;;;15.80;99.90;;;;;;5074241;28;20194;-76
2022/09/25 11:35:11;;;;;;;3.23;1.43;;;15.80;1.00;;;;;;5074934;28;20172;-76
2022/09/25 11:37:48;;;;;;;5.87;1.50;;;16.00;99.90;;;;;;5074883;28;20201;-76
2022/09/25 11:41:11;;;;;;;4.90;1.20;;;16.20;1.00;;;;;;5075954;28;20162;-76
2022/09/25 11:43:45;;;;;;;8.63;1.20;;;16.20;99.90;;;;;;5075656;28;20304;-77
2022/09/25 11:46:32;;;;;;;3.33;0.90;;;16.40;99.90;;;;;;5075330;28;20216;-76
2022/09/25 11:49:14;;;;;;;2.63;1.07;;;16.30;99.90;;;;;;5034900;28;20217;-77
2022/09/25 11:52:21;;;;;;;3.43;1.00;;;16.20;1.00;;;;;;5076025;28;20195;-74
2022/09/25 11:55:09;;;;;;;5.63;1.37;;;16.20;99.90;;;;;;5076352;28;20151;-76
2022/09/25 11:57:54;;;;;;;5.60;1.37;;;16.10;99.90;;;;;;5076458;28;20144;-77
2022/09/25 12:00:59;;;;;;;4.63;1.50;;;16.00;1.00;;;;;;5076471;28;20628;-77
2022/09/25 12:03:45;;;;;;;5.17;1.30;;;15.90;99.90;;;;;;5074353;28;20185;-77
2022/09/25 12:06:38;;;;;;;6.27;1.83;;;15.80;68.30;;;;;;5076932;28;20166;-77
2022/09/25 12:09:12;;;;;;;3.67;1.33;;;15.80;99.90;;;;;;5075512;28;20203;-77
2022/09/25 12:12:16;;;;;;;5.13;1.27;;;15.80;1.00;;;;;;5076595;28;20183;-77
2022/09/25 12:15:16;;;;;;;5.83;1.63;;;15.90;99.90;;;;;;5073479;28;20235;-75
2022/09/25 12:18:19;;;;;;;5.43;1.77;;;16.10;1.00;;;;;;5078310;28;20151;-77
2022/09/25 12:20:59;;;;;;;3.37;0.93;;;16.20;1.00;;;;;;5074982;28;20199;-76
2022/09/25 12:23:27;;;;;;;3.37;0.80;;;16.30;99.90;;;;;;5074466;28;20201;-77
2022/09/25 12:26:23;;;;;;;4.17;1.10;;;16.40;99.90;;;;;;5074546;28;20179;-77
2022/09/25 12:29:02;;;;;;;5.03;1.30;;;16.40;99.90;;;;;;5074700;28;20221;-77
2022/09/25 12:31:34;;;;;;;3.87;1.00;;;16.50;99.90;;;;;;5074813;28;20210;-75
2022/09/25 12:34:31;;;;;;;4.47;1.20;;;16.70;1.00;;;;;;5076037;28;20163;-77
2022/09/25 12:37:19;;;;;;;3.43;1.10;;;16.80;99.90;;;;;;5066975;28;20187;-77
2022/09/25 12:39:53;;;;;;;3.43;1.10;;;16.80;99.90;;;;;;5075702;28;20650;-77
2022/09/25 12:42:28;;;;;;;3.10;0.97;;;16.80;1.00;;;;;;5075113;28;20189;-77
2022/09/25 12:45:01;;;;;;;3.43;1.23;;;17.00;99.90;;;;;;5075397;28;20190;-76
2022/09/25 12:47:32;;;;;;;4.30;0.93;;;16.90;1.00;;;;;;5073914;28;20568;-76
2022/09/25 12:50:13;;;;;;;3.50;1.00;;;17.00;99.90;;;;;;5075354;28;20151;-77
2022/09/25 12:52:52;;;;;;;5.30;1.13;;;17.10;1.00;;;;;;5073654;28;20155;-75
2022/09/25 12:55:25;;;;;;;4.77;1.00;;;17.10;1.00;;;;;;5054769;28;20163;-77
2022/09/25 12:57:59;;;;;;;5.43;1.20;;;17.20;1.00;;;;;;5054428;28;20164;-77
2022/09/25 13:00:28;;;;;;;2.33;1.00;;;17.20;1.00;;;;;;5054534;28;20281;-77
2022/09/25 13:03:24;;;;;;;3.43;1.40;;;17.30;1.00;;;;;;5068617;28;20187;-76
2022/09/25 13:06:02;;;;;;;3.77;1.20;;;17.40;99.90;;;;;;5074647;28;20171;-77
2022/09/25 13:08:40;;;;;;;3.73;1.10;;;17.40;99.90;;;;;;5073408;28;20191;-77
2022/09/25 13:11:31;;;;;;;3.23;1.33;;;17.50;1.00;;;;;;5073394;28;20202;-77
2022/09/25 13:13:58;;;;;;;2.40;0.90;;;17.60;1.00;;;;;;5075023;28;20160;-76
2022/09/25 13:16:24;;;;;;;2.47;0.90;;;17.70;40.90;;;;;;5076627;28;20176;-77
2022/09/25 13:19:27;;;;;;;2.93;0.80;;;17.60;1.00;;;;;;5076691;28;20175;-77
2022/09/25 13:22:07;;;;;;;2.27;0.93;;;17.70;18.00;;;;;;5072790;28;20336;-77
2022/09/25 13:24:44;;;;;;;4.60;1.53;;;17.70;99.90;;;;;;5072702;28;20589;-77
2022/09/25 13:27:21;;;;;;;4.70;0.90;;;17.70;99.90;;;;;;5074035;28;20158;-77
2022/09/25 13:30:00;;;;;;;3.77;1.00;;;17.70;1.00;;;;;;5074241;28;20174;-77
2022/09/25 13:32:33;;;;;;;1.63;0.93;;;17.60;1.00;;;;;;5071436;28;20286;-77
2022/09/25 13:35:05;;;;;;;2.80;0.83;;;17.50;1.00;;;;;;5074693;28;20167;-77
2022/09/25 13:37:35;;;;;;;3.53;1.00;;;17.60;1.00;;;;;;5074658;28;20163;-77
2022/09/25 13:43:19;;;;;;;2.50;0.80;;;17.70;1.00;;;;;;5074515;28;20639;-77